UAL988 EDDF-KIAD
Flight info
| Callsign | UAL988 |
|---|---|
| Flight time | N/A |
| Altitude | 34000 |
| Route | OBOKA5G OBOKA Z29 TORNU DCT VELED DCT BREDA DCT GALSO Q63 ERING L179 UGBET Q60 OKSAW DCT TIGWE DCT ARPAK DCT FELCA DCT FADZU DCT NICXI DCT OFSOX DCT SLANY DCT LUNIG DCT LUPOR DCT MALOT/M083F350 DCT 54N020W 54N030W 54N040W 53N050W DCT RIKAL/N0468F360 N572A TOPPS/N0465F380 DCT KAYCC DCT KYLOH DCT BAF HYPER9 |
| Aircraft | B77W/H-SDE1E2E3FGHIJ2J3J4J5M1RWXY/LB1D1 |
Departure
| Time | N/A |
|---|---|
| Airport | Frankfurt Main Airport (EDDF) |
Arrival
| Time | 2026-05-05 20:17 |
|---|---|
| Airport | Washington Dulles International Airport (KIAD) |
| Time | Latitude | Longitude | Altitude | Speed | Heading |
|---|---|---|---|---|---|
| 2026-05-05 19:37 | 46.42854 | -65.91804 | 35736 ft | 430 kts | 233° |
| 2026-05-05 19:38 | 46.12049 | -66.44558 | 35740 ft | 429 kts | 232° |
| 2026-05-05 19:38 | 45.80897 | -66.96917 | 35712 ft | 429 kts | 232° |
| 2026-05-05 19:39 | 45.49792 | -67.48213 | 35748 ft | 429 kts | 231° |
| 2026-05-05 19:39 | 45.20433 | -67.98617 | 35803 ft | 428 kts | 234° |
| 2026-05-05 19:39 | 45.12034 | -68.13844 | 36063 ft | 435 kts | 233° |
| 2026-05-05 19:40 | 45.08531 | -68.20152 | 36649 ft | 433 kts | 233° |
| 2026-05-05 19:40 | 45.06672 | -68.23492 | 37127 ft | 428 kts | 233° |
| 2026-05-05 19:40 | 45.04837 | -68.26788 | 37517 ft | 425 kts | 233° |
| 2026-05-05 19:40 | 45.02994 | -68.30098 | 37739 ft | 426 kts | 234° |
| 2026-05-05 19:41 | 44.91615 | -68.50465 | 37790 ft | 438 kts | 233° |
| 2026-05-05 19:41 | 44.77942 | -68.74720 | 37652 ft | 416 kts | 233° |
| 2026-05-05 19:42 | 44.62328 | -69.02200 | 37860 ft | 435 kts | 233° |
| 2026-05-05 19:42 | 44.31883 | -69.54997 | 37680 ft | 430 kts | 232° |
| 2026-05-05 19:43 | 44.25412 | -69.66090 | 37689 ft | 423 kts | 232° |
| 2026-05-05 19:43 | 44.17167 | -69.80172 | 37781 ft | 420 kts | 232° |
| 2026-05-05 19:43 | 44.02532 | -70.05002 | 37889 ft | 418 kts | 232° |
| 2026-05-05 19:44 | 43.87724 | -70.29904 | 37774 ft | 419 kts | 232° |
| 2026-05-05 19:44 | 43.57757 | -70.79656 | 37797 ft | 421 kts | 232° |
| 2026-05-05 19:44 | 43.47490 | -70.91177 | 37739 ft | 430 kts | 214° |
| 2026-05-05 19:45 | 43.26809 | -71.07142 | 37790 ft | 431 kts | 213° |
| 2026-05-05 19:45 | 42.97540 | -71.37764 | 37763 ft | 425 kts | 232° |
| 2026-05-05 19:46 | 42.67405 | -71.88195 | 37773 ft | 429 kts | 232° |
| 2026-05-05 19:46 | 42.37076 | -72.37859 | 37778 ft | 432 kts | 233° |
| 2026-05-05 19:47 | 42.06895 | -72.87453 | 37771 ft | 435 kts | 235° |
| 2026-05-05 19:47 | 41.77678 | -73.36960 | 37845 ft | 439 kts | 234° |
| 2026-05-05 19:48 | 41.47618 | -73.86562 | 37828 ft | 446 kts | 229° |
| 2026-05-05 19:48 | 41.18204 | -74.25833 | 37802 ft | 445 kts | 238° |
| 2026-05-05 19:49 | 41.05280 | -74.54341 | 37902 ft | 441 kts | 241° |
| 2026-05-05 19:49 | 40.79876 | -75.08571 | 37848 ft | 444 kts | 241° |
| 2026-05-05 19:50 | 40.54930 | -75.63512 | 37836 ft | 442 kts | 244° |
| 2026-05-05 19:50 | 40.49882 | -75.75146 | 37874 ft | 442 kts | 243° |
| 2026-05-05 19:51 | 40.46824 | -75.82149 | 37825 ft | 441 kts | 244° |
| 2026-05-05 19:51 | 40.43711 | -75.89080 | 37850 ft | 442 kts | 238° |
| 2026-05-05 19:51 | 40.41673 | -75.92179 | 37244 ft | 457 kts | 229° |
| 2026-05-05 19:52 | 40.39364 | -75.95063 | 36555 ft | 458 kts | 228° |
| 2026-05-05 19:52 | 40.37007 | -75.97875 | 35797 ft | 458 kts | 228° |
| 2026-05-05 19:52 | 40.34656 | -76.00691 | 35010 ft | 458 kts | 229° |
| 2026-05-05 19:52 | 40.32320 | -76.03547 | 34171 ft | 459 kts | 230° |
| 2026-05-05 19:53 | 40.30784 | -76.05455 | 33562 ft | 460 kts | 231° |
| 2026-05-05 19:53 | 40.27719 | -76.09313 | 32251 ft | 462 kts | 230° |
| 2026-05-05 19:53 | 40.25397 | -76.12252 | 31280 ft | 464 kts | 229° |
| 2026-05-05 19:53 | 40.23067 | -76.15202 | 30397 ft | 465 kts | 228° |
| 2026-05-05 19:54 | 40.21527 | -76.17144 | 29905 ft | 462 kts | 228° |
| 2026-05-05 19:54 | 40.19217 | -76.20052 | 29070 ft | 459 kts | 227° |
| 2026-05-05 19:54 | 40.16925 | -76.22935 | 28324 ft | 453 kts | 227° |
| 2026-05-05 19:54 | 40.14668 | -76.25771 | 27650 ft | 448 kts | 227° |
| 2026-05-05 19:55 | 40.12440 | -76.28592 | 26955 ft | 442 kts | 229° |
| 2026-05-05 19:55 | 40.10551 | -76.31707 | 26264 ft | 433 kts | 241° |
| 2026-05-05 19:55 | 40.09105 | -76.35074 | 25609 ft | 427 kts | 243° |
| 2026-05-05 19:55 | 40.07661 | -76.38475 | 24941 ft | 424 kts | 242° |
| 2026-05-05 19:56 | 40.06185 | -76.41766 | 24295 ft | 421 kts | 241° |
| 2026-05-05 19:56 | 40.04676 | -76.45033 | 23639 ft | 419 kts | 240° |
| 2026-05-05 19:56 | 40.03163 | -76.48281 | 22904 ft | 417 kts | 240° |
| 2026-05-05 19:56 | 40.01663 | -76.51507 | 22214 ft | 413 kts | 240° |
| 2026-05-05 19:57 | 40.00177 | -76.54709 | 21542 ft | 409 kts | 240° |
| 2026-05-05 19:57 | 39.98731 | -76.57829 | 20911 ft | 404 kts | 240° |
| 2026-05-05 19:57 | 39.97275 | -76.60963 | 20293 ft | 400 kts | 240° |
| 2026-05-05 19:57 | 39.95842 | -76.64047 | 19695 ft | 396 kts | 240° |
| 2026-05-05 19:58 | 39.94415 | -76.67109 | 19088 ft | 393 kts | 240° |
| 2026-05-05 19:58 | 39.93000 | -76.70145 | 18526 ft | 389 kts | 240° |
| 2026-05-05 19:58 | 39.91607 | -76.73130 | 17895 ft | 385 kts | 240° |
| 2026-05-05 19:58 | 39.90220 | -76.76101 | 17276 ft | 382 kts | 240° |
| 2026-05-05 19:59 | 39.88844 | -76.79046 | 16642 ft | 378 kts | 240° |
| 2026-05-05 19:59 | 39.87500 | -76.81921 | 16044 ft | 374 kts | 240° |
| 2026-05-05 19:59 | 39.86150 | -76.84807 | 15461 ft | 371 kts | 240° |
| 2026-05-05 19:59 | 39.84813 | -76.87664 | 14889 ft | 367 kts | 240° |
| 2026-05-05 20:00 | 39.83480 | -76.90503 | 14290 ft | 364 kts | 240° |
| 2026-05-05 20:00 | 39.82162 | -76.93312 | 13712 ft | 362 kts | 241° |
| 2026-05-05 20:00 | 39.80859 | -76.96090 | 13156 ft | 357 kts | 240° |
| 2026-05-05 20:00 | 39.79581 | -76.98810 | 12523 ft | 354 kts | 240° |
| 2026-05-05 20:01 | 39.78300 | -77.01532 | 11946 ft | 351 kts | 240° |
| 2026-05-05 20:01 | 39.77027 | -77.04233 | 11383 ft | 348 kts | 240° |
| 2026-05-05 20:01 | 39.75766 | -77.06909 | 10835 ft | 345 kts | 239° |
| 2026-05-05 20:01 | 39.74539 | -77.09509 | 10696 ft | 330 kts | 239° |
| 2026-05-05 20:02 | 39.73371 | -77.11981 | 10554 ft | 318 kts | 239° |
| 2026-05-05 20:02 | 39.72224 | -77.14410 | 10424 ft | 306 kts | 239° |
| 2026-05-05 20:02 | 39.71146 | -77.16691 | 10289 ft | 295 kts | 239° |
| 2026-05-05 20:02 | 39.70092 | -77.18916 | 10168 ft | 284 kts | 239° |
| 2026-05-05 20:03 | 39.69076 | -77.21062 | 10064 ft | 274 kts | 239° |
| 2026-05-05 20:03 | 39.68021 | -77.23053 | 9935 ft | 263 kts | 230° |
| 2026-05-05 20:03 | 39.66735 | -77.24693 | 9825 ft | 255 kts | 224° |
| 2026-05-05 20:03 | 39.65424 | -77.26208 | 9723 ft | 252 kts | 224° |
| 2026-05-05 20:04 | 39.64096 | -77.27745 | 9600 ft | 258 kts | 224° |
| 2026-05-05 20:04 | 39.62751 | -77.29322 | 9474 ft | 261 kts | 224° |
| 2026-05-05 20:04 | 39.61430 | -77.30890 | 9352 ft | 260 kts | 224° |
| 2026-05-05 20:04 | 39.60099 | -77.32478 | 9236 ft | 259 kts | 224° |
| 2026-05-05 20:05 | 39.58780 | -77.34058 | 9118 ft | 256 kts | 224° |
| 2026-05-05 20:05 | 39.57475 | -77.35618 | 9067 ft | 255 kts | 224° |
| 2026-05-05 20:05 | 39.56146 | -77.37159 | 9013 ft | 257 kts | 223° |
| 2026-05-05 20:05 | 39.54798 | -77.38701 | 9012 ft | 259 kts | 223° |
| 2026-05-05 20:06 | 39.53442 | -77.40245 | 9011 ft | 260 kts | 223° |
| 2026-05-05 20:06 | 39.52099 | -77.41774 | 9007 ft | 261 kts | 223° |
| 2026-05-05 20:06 | 39.50736 | -77.43326 | 9004 ft | 261 kts | 223° |
| 2026-05-05 20:06 | 39.49372 | -77.44878 | 9001 ft | 261 kts | 223° |
| 2026-05-05 20:07 | 39.48015 | -77.46432 | 9000 ft | 259 kts | 224° |
| 2026-05-05 20:07 | 39.46671 | -77.47985 | 8995 ft | 258 kts | 222° |
| 2026-05-05 20:07 | 39.45300 | -77.49467 | 9016 ft | 253 kts | 220° |
| 2026-05-05 20:07 | 39.43707 | -77.50485 | 9015 ft | 263 kts | 196° |
| 2026-05-05 20:08 | 39.41873 | -77.50536 | 8858 ft | 273 kts | 175° |
| 2026-05-05 20:08 | 39.40076 | -77.49654 | 8425 ft | 281 kts | 152° |
| 2026-05-05 20:08 | 39.38480 | -77.48184 | 7992 ft | 283 kts | 150° |
| 2026-05-05 20:08 | 39.36872 | -77.46738 | 7633 ft | 273 kts | 151° |
| 2026-05-05 20:09 | 39.35317 | -77.45357 | 6922 ft | 270 kts | 151° |
| 2026-05-05 20:09 | 39.33807 | -77.44020 | 6577 ft | 252 kts | 152° |
| 2026-05-05 20:09 | 39.32339 | -77.43142 | 6331 ft | 222 kts | 177° |
| 2026-05-05 20:09 | 39.30845 | -77.43104 | 6172 ft | 218 kts | 185° |
| 2026-05-05 20:10 | 39.29306 | -77.43122 | 6037 ft | 220 kts | 184° |
| 2026-05-05 20:10 | 39.27809 | -77.43131 | 6004 ft | 210 kts | 184° |
| 2026-05-05 20:10 | 39.26343 | -77.43143 | 5814 ft | 213 kts | 185° |
| 2026-05-05 20:10 | 39.24867 | -77.43161 | 5565 ft | 214 kts | 185° |
| 2026-05-05 20:11 | 39.23380 | -77.43179 | 5310 ft | 213 kts | 184° |
| 2026-05-05 20:11 | 39.21911 | -77.43202 | 5112 ft | 208 kts | 185° |
| 2026-05-05 20:11 | 39.20495 | -77.43223 | 5081 ft | 199 kts | 184° |
| 2026-05-05 20:11 | 39.19093 | -77.43241 | 5070 ft | 205 kts | 185° |
| 2026-05-05 20:12 | 39.17664 | -77.43265 | 5033 ft | 209 kts | 184° |
| 2026-05-05 20:12 | 39.16205 | -77.43289 | 4936 ft | 212 kts | 185° |
| 2026-05-05 20:12 | 39.14686 | -77.43314 | 4628 ft | 223 kts | 184° |
| 2026-05-05 20:12 | 39.13145 | -77.43300 | 4384 ft | 216 kts | 184° |
| 2026-05-05 20:13 | 39.11659 | -77.43334 | 3866 ft | 211 kts | 185° |
| 2026-05-05 20:13 | 39.10223 | -77.43319 | 3382 ft | 204 kts | 183° |
| 2026-05-05 20:13 | 39.08855 | -77.43326 | 2894 ft | 191 kts | 187° |
| 2026-05-05 20:13 | 39.07539 | -77.43418 | 2387 ft | 186 kts | 186° |
| 2026-05-05 20:14 | 39.06318 | -77.43439 | 2244 ft | 164 kts | 185° |
| 2026-05-05 20:14 | 39.05241 | -77.43420 | 2046 ft | 145 kts | 185° |
| 2026-05-05 20:14 | 39.04302 | -77.43432 | 1892 ft | 125 kts | 187° |
| 2026-05-05 20:14 | 39.03466 | -77.43469 | 1765 ft | 123 kts | 187° |
| 2026-05-05 20:15 | 39.02588 | -77.43500 | 1668 ft | 128 kts | 185° |
| 2026-05-05 20:15 | 39.01689 | -77.43500 | 1496 ft | 130 kts | 185° |
| 2026-05-05 20:15 | 39.00775 | -77.43516 | 1317 ft | 132 kts | 187° |
| 2026-05-05 20:15 | 38.99853 | -77.43536 | 1185 ft | 141 kts | 186° |
| 2026-05-05 20:16 | 38.98865 | -77.43555 | 973 ft | 138 kts | 182° |
| 2026-05-05 20:16 | 38.97957 | -77.43556 | 775 ft | 130 kts | 185° |
| 2026-05-05 20:16 | 38.97041 | -77.43578 | 614 ft | 136 kts | 185° |
| 2026-05-05 20:16 | 38.96100 | -77.43587 | 428 ft | 132 kts | 186° |
| 2026-05-05 20:17 | 38.95207 | -77.43605 | 309 ft | 122 kts | 185° |
| 2026-05-05 20:17 | 38.94503 | -77.43615 | 307 ft | 75 kts | 180° |
| 2026-05-05 20:17 | 38.94093 | -77.43623 | 310 ft | 43 kts | 184° |
| 2026-05-05 20:17 | 38.93904 | -77.43711 | 307 ft | 20 kts | 211° |
| 2026-05-05 20:18 | 38.93813 | -77.43783 | 309 ft | 14 kts | 212° |
| 2026-05-05 20:18 | 38.93806 | -77.43852 | 306 ft | 7 kts | 324° |
| 2026-05-05 20:18 | 38.93876 | -77.43869 | 306 ft | 12 kts | 357° |
| 2026-05-05 20:18 | 38.93961 | -77.43869 | 306 ft | 12 kts | 0° |
| 2026-05-05 20:19 | 38.94045 | -77.43868 | 307 ft | 12 kts | 0° |
| 2026-05-05 20:19 | 38.94133 | -77.43867 | 307 ft | 13 kts | 1° |
| 2026-05-05 20:19 | 38.94233 | -77.43865 | 307 ft | 15 kts | 0° |
| 2026-05-05 20:19 | 38.94335 | -77.43864 | 307 ft | 15 kts | 1° |
| 2026-05-05 20:20 | 38.94397 | -77.43903 | 308 ft | 10 kts | 292° |
| 2026-05-05 20:20 | 38.94403 | -77.43993 | 307 ft | 10 kts | 271° |
| 2026-05-05 20:20 | 38.94427 | -77.44048 | 307 ft | 7 kts | 321° |
| 2026-05-05 20:20 | 38.94460 | -77.44070 | 307 ft | 4 kts | 336° |
| 2026-05-05 20:21 | 38.94479 | -77.44079 | 308 ft | 0 kts | 340° |
| 2026-05-05 20:21 | 38.94480 | -77.44079 | 308 ft | 0 kts | 340° |